sensor_id;sensor_type;location;lat;lon;timestamp;pressure;altitude;pressure_sealevel;temperature;humidity
85039;BME280;75366;54.588;18.456;2024-03-23T00:56:18;99757.85;;;5.78;86.21
85039;BME280;75366;54.588;18.456;2024-03-23T01:01:22;99759.84;;;5.79;86.16
85039;BME280;75366;54.588;18.456;2024-03-23T01:06:24;99756.02;;;5.80;86.14
85039;BME280;75366;54.588;18.456;2024-03-23T01:11:27;99750.79;;;5.81;86.08
85039;BME280;75366;54.588;18.456;2024-03-23T01:16:30;99745.62;;;5.79;85.78
85039;BME280;75366;54.588;18.456;2024-03-23T01:21:33;99747.88;;;5.79;85.65
85039;BME280;75366;54.588;18.456;2024-03-23T01:26:36;99741.20;;;5.76;85.61
85039;BME280;75366;54.588;18.456;2024-03-23T01:31:39;99744.57;;;5.75;85.53
85039;BME280;75366;54.588;18.456;2024-03-23T01:36:42;99743.21;;;5.73;85.55
85039;BME280;75366;54.588;18.456;2024-03-23T01:41:45;99738.81;;;5.70;85.56
85039;BME280;75366;54.588;18.456;2024-03-23T01:46:49;99741.13;;;5.65;85.45
85039;BME280;75366;54.588;18.456;2024-03-23T01:51:52;99738.35;;;5.62;85.57
85039;BME280;75366;54.588;18.456;2024-03-23T01:56:55;99738.79;;;5.59;85.49
85039;BME280;75366;54.588;18.456;2024-03-23T02:01:58;99736.98;;;5.56;85.56
85039;BME280;75366;54.588;18.456;2024-03-23T02:07:01;99740.45;;;5.54;85.61
85039;BME280;75366;54.588;18.456;2024-03-23T02:12:04;99748.12;;;5.51;85.54
85039;BME280;75366;54.588;18.456;2024-03-23T02:17:08;99741.66;;;5.49;85.60
85039;BME280;75366;54.588;18.456;2024-03-23T02:22:11;99731.41;;;5.47;85.52
85039;BME280;75366;54.588;18.456;2024-03-23T02:27:14;99721.58;;;5.45;85.63
85039;BME280;75366;54.588;18.456;2024-03-23T02:32:18;99713.95;;;5.44;85.65
85039;BME280;75366;54.588;18.456;2024-03-23T02:37:20;99711.95;;;5.42;85.82
85039;BME280;75366;54.588;18.456;2024-03-23T02:42:24;99707.48;;;5.40;85.69
85039;BME280;75366;54.588;18.456;2024-03-23T02:47:26;99705.83;;;5.38;85.67
85039;BME280;75366;54.588;18.456;2024-03-23T02:52:29;99701.64;;;5.36;85.57
85039;BME280;75366;54.588;18.456;2024-03-23T02:57:32;99690.80;;;5.33;85.73
85039;BME280;75366;54.588;18.456;2024-03-23T03:02:35;99687.72;;;5.31;85.57
85039;BME280;75366;54.588;18.456;2024-03-23T03:07:38;99689.56;;;5.29;85.81
85039;BME280;75366;54.588;18.456;2024-03-23T03:12:43;99693.95;;;5.26;85.75
85039;BME280;75366;54.588;18.456;2024-03-23T03:17:46;99691.98;;;5.24;85.68
85039;BME280;75366;54.588;18.456;2024-03-23T03:22:49;99677.64;;;5.20;85.69
85039;BME280;75366;54.588;18.456;2024-03-23T03:27:52;99676.89;;;5.17;85.71
85039;BME280;75366;54.588;18.456;2024-03-23T03:32:55;99675.34;;;5.15;85.96
85039;BME280;75366;54.588;18.456;2024-03-23T03:37:58;99677.97;;;5.13;85.95
85039;BME280;75366;54.588;18.456;2024-03-23T03:43:01;99675.94;;;5.10;85.90
85039;BME280;75366;54.588;18.456;2024-03-23T03:48:04;99667.91;;;5.09;86.07
85039;BME280;75366;54.588;18.456;2024-03-23T03:53:07;99665.29;;;5.11;86.19
85039;BME280;75366;54.588;18.456;2024-03-23T03:58:11;99653.70;;;5.12;86.10
85039;BME280;75366;54.588;18.456;2024-03-23T04:03:13;99652.63;;;5.13;85.94
85039;BME280;75366;54.588;18.456;2024-03-23T04:08:17;99650.85;;;5.16;85.86
85039;BME280;75366;54.588;18.456;2024-03-23T04:13:19;99652.52;;;5.16;85.83
85039;BME280;75366;54.588;18.456;2024-03-23T04:18:22;99639.76;;;5.14;85.86
85039;BME280;75366;54.588;18.456;2024-03-23T04:23:26;99628.05;;;5.14;85.93
85039;BME280;75366;54.588;18.456;2024-03-23T04:28:29;99631.00;;;5.13;85.72
85039;BME280;75366;54.588;18.456;2024-03-23T04:33:32;99634.50;;;5.14;85.76
85039;BME280;75366;54.588;18.456;2024-03-23T04:38:34;99635.46;;;5.18;85.60
85039;BME280;75366;54.588;18.456;2024-03-23T04:43:37;99634.31;;;5.21;85.61
85039;BME280;75366;54.588;18.456;2024-03-23T04:48:40;99631.35;;;5.24;85.66
85039;BME280;75366;54.588;18.456;2024-03-23T04:53:43;99623.84;;;5.24;85.44
85039;BME280;75366;54.588;18.456;2024-03-23T04:58:46;99621.75;;;5.25;85.28
85039;BME280;75366;54.588;18.456;2024-03-23T05:03:50;99623.86;;;5.27;85.33
85039;BME280;75366;54.588;18.456;2024-03-23T05:08:53;99615.02;;;5.28;85.19
85039;BME280;75366;54.588;18.456;2024-03-23T05:13:56;99606.77;;;5.29;85.09
85039;BME280;75366;54.588;18.456;2024-03-23T05:18:59;99616.52;;;5.29;85.17
85039;BME280;75366;54.588;18.456;2024-03-23T05:24:02;99619.84;;;5.29;85.04
85039;BME280;75366;54.588;18.456;2024-03-23T05:29:06;99619.77;;;5.31;85.01
85039;BME280;75366;54.588;18.456;2024-03-23T05:34:13;99615.67;;;5.32;85.01
85039;BME280;75366;54.588;18.456;2024-03-23T05:39:16;99609.94;;;5.35;84.99
85039;BME280;75366;54.588;18.456;2024-03-23T05:44:19;99610.33;;;5.37;84.63
85039;BME280;75366;54.588;18.456;2024-03-23T05:49:22;99613.44;;;5.40;84.75
85039;BME280;75366;54.588;18.456;2024-03-23T05:54:25;99606.52;;;5.43;84.57
85039;BME280;75366;54.588;18.456;2024-03-23T05:59:28;99600.38;;;5.45;84.55
85039;BME280;75366;54.588;18.456;2024-03-23T06:04:31;99592.52;;;5.47;84.49
85039;BME280;75366;54.588;18.456;2024-03-23T06:09:34;99593.86;;;5.49;84.42
85039;BME280;75366;54.588;18.456;2024-03-23T06:14:37;99597.61;;;5.51;84.38
85039;BME280;75366;54.588;18.456;2024-03-23T06:19:40;99593.04;;;5.51;84.20
85039;BME280;75366;54.588;18.456;2024-03-23T06:24:43;99585.65;;;5.51;84.15
85039;BME280;75366;54.588;18.456;2024-03-23T06:29:47;99580.02;;;5.51;84.12
85039;BME280;75366;54.588;18.456;2024-03-23T06:34:50;99581.34;;;5.50;84.21
85039;BME280;75366;54.588;18.456;2024-03-23T06:39:53;99586.08;;;5.48;83.89
85039;BME280;75366;54.588;18.456;2024-03-23T06:44:56;99582.23;;;5.47;83.98
85039;BME280;75366;54.588;18.456;2024-03-23T06:50:00;99574.44;;;5.46;83.79
85039;BME280;75366;54.588;18.456;2024-03-23T06:55:21;99576.84;;;5.46;83.82
85039;BME280;75366;54.588;18.456;2024-03-23T07:00:24;99572.90;;;5.48;83.70
85039;BME280;75366;54.588;18.456;2024-03-23T07:05:27;99568.08;;;5.50;83.66
85039;BME280;75366;54.588;18.456;2024-03-23T07:10:31;99565.05;;;5.57;83.79
85039;BME280;75366;54.588;18.456;2024-03-23T07:15:33;99576.52;;;5.61;83.63
85039;BME280;75366;54.588;18.456;2024-03-23T07:20:36;99580.13;;;5.63;83.48
85039;BME280;75366;54.588;18.456;2024-03-23T07:25:39;99577.02;;;5.64;83.15
85039;BME280;75366;54.588;18.456;2024-03-23T07:30:42;99577.88;;;5.65;83.24
85039;BME280;75366;54.588;18.456;2024-03-23T07:35:45;99574.11;;;5.65;82.94
85039;BME280;75366;54.588;18.456;2024-03-23T07:40:47;99580.13;;;5.63;82.88
85039;BME280;75366;54.588;18.456;2024-03-23T07:45:57;99573.14;;;5.62;82.94
85039;BME280;75366;54.588;18.456;2024-03-23T07:51:01;99571.34;;;5.64;83.11
85039;BME280;75366;54.588;18.456;2024-03-23T07:56:08;99564.19;;;5.67;82.81
85039;BME280;75366;54.588;18.456;2024-03-23T08:01:14;99556.52;;;5.76;82.87
85039;BME280;75366;54.588;18.456;2024-03-23T08:06:18;99552.61;;;5.92;82.77
85039;BME280;75366;54.588;18.456;2024-03-23T08:11:22;99558.94;;;6.06;82.44
85039;BME280;75366;54.588;18.456;2024-03-23T08:16:25;99562.13;;;6.11;82.18
85039;BME280;75366;54.588;18.456;2024-03-23T08:21:28;99553.38;;;6.14;82.14
85039;BME280;75366;54.588;18.456;2024-03-23T08:26:31;99545.63;;;6.13;81.92
85039;BME280;75366;54.588;18.456;2024-03-23T08:31:35;99539.50;;;6.11;81.72
85039;BME280;75366;54.588;18.456;2024-03-23T08:36:38;99531.48;;;6.11;81.37
85039;BME280;75366;54.588;18.456;2024-03-23T08:41:41;99527.09;;;6.15;81.28
85039;BME280;75366;54.588;18.456;2024-03-23T08:46:48;99518.05;;;6.15;80.88
85039;BME280;75366;54.588;18.456;2024-03-23T08:51:51;99517.21;;;6.28;80.76
85039;BME280;75366;54.588;18.456;2024-03-23T08:56:55;99505.68;;;6.37;80.36
85039;BME280;75366;54.588;18.456;2024-03-23T09:01:58;99495.80;;;6.42;80.55
85039;BME280;75366;54.588;18.456;2024-03-23T09:07:01;99493.84;;;6.48;80.32
85039;BME280;75366;54.588;18.456;2024-03-23T09:12:04;99486.55;;;6.53;80.29
85039;BME280;75366;54.588;18.456;2024-03-23T09:17:07;99482.77;;;6.60;79.74
85039;BME280;75366;54.588;18.456;2024-03-23T09:22:10;99480.46;;;6.64;79.32
85039;BME280;75366;54.588;18.456;2024-03-23T09:27:14;99476.08;;;6.65;79.22
85039;BME280;75366;54.588;18.456;2024-03-23T09:32:17;99473.70;;;6.69;79.50
85039;BME280;75366;54.588;18.456;2024-03-23T09:37:21;99471.86;;;6.71;78.86
85039;BME280;75366;54.588;18.456;2024-03-23T09:42:26;99464.73;;;6.73;78.98
85039;BME280;75366;54.588;18.456;2024-03-23T09:47:30;99454.13;;;6.82;78.95
85039;BME280;75366;54.588;18.456;2024-03-23T09:52:52;99449.86;;;6.89;77.89
85039;BME280;75366;54.588;18.456;2024-03-23T09:58:16;99453.80;;;6.96;77.58
85039;BME280;75366;54.588;18.456;2024-03-23T10:03:44;99446.66;;;7.09;77.78
85039;BME280;75366;54.588;18.456;2024-03-23T10:09:16;99442.23;;;7.32;77.50
85039;BME280;75366;54.588;18.456;2024-03-23T10:14:29;99434.52;;;7.46;76.68
85039;BME280;75366;54.588;18.456;2024-03-23T10:19:32;99436.66;;;7.47;76.01
85039;BME280;75366;54.588;18.456;2024-03-23T10:24:39;99439.58;;;7.47;75.98
85039;BME280;75366;54.588;18.456;2024-03-23T10:29:42;99441.46;;;7.45;74.97
85039;BME280;75366;54.588;18.456;2024-03-23T10:34:45;99429.99;;;7.44;74.42
85039;BME280;75366;54.588;18.456;2024-03-23T10:39:48;99431.15;;;7.43;74.20
85039;BME280;75366;54.588;18.456;2024-03-23T10:44:51;99427.02;;;7.40;74.98
85039;BME280;75366;54.588;18.456;2024-03-23T10:49:56;99422.82;;;7.37;73.36
85039;BME280;75366;54.588;18.456;2024-03-23T10:55:02;99422.38;;;7.32;73.26
85039;BME280;75366;54.588;18.456;2024-03-23T11:00:07;99418.86;;;7.24;73.10
85039;BME280;75366;54.588;18.456;2024-03-23T11:10:30;99414.18;;;7.40;72.36
85039;BME280;75366;54.588;18.456;2024-03-23T11:15:34;99411.26;;;7.47;71.35
85039;BME280;75366;54.588;18.456;2024-03-23T11:20:39;99402.50;;;7.57;70.98
85039;BME280;75366;54.588;18.456;2024-03-23T11:25:42;99396.55;;;7.70;71.25
85039;BME280;75366;54.588;18.456;2024-03-23T11:30:52;99389.71;;;7.82;69.85
85039;BME280;75366;54.588;18.456;2024-03-23T11:35:55;99379.23;;;7.93;69.73
85039;BME280;75366;54.588;18.456;2024-03-23T11:41:04;99374.11;;;8.01;70.15
85039;BME280;75366;54.588;18.456;2024-03-23T11:46:08;99373.09;;;8.04;68.15
85039;BME280;75366;54.588;18.456;2024-03-23T11:51:11;99364.48;;;8.02;68.06
85039;BME280;75366;54.588;18.456;2024-03-23T11:56:14;99358.48;;;8.09;66.87
85039;BME280;75366;54.588;18.456;2024-03-23T12:01:17;99359.58;;;8.18;67.62
85039;BME280;75366;54.588;18.456;2024-03-23T12:06:21;99362.56;;;8.23;66.97
85039;BME280;75366;54.588;18.456;2024-03-23T12:11:25;99352.58;;;8.22;66.61
85039;BME280;75366;54.588;18.456;2024-03-23T12:16:29;99353.83;;;8.18;65.51
85039;BME280;75366;54.588;18.456;2024-03-23T12:21:32;99358.29;;;8.07;65.84
85039;BME280;75366;54.588;18.456;2024-03-23T12:26:55;99352.58;;;8.01;69.05
85039;BME280;75366;54.588;18.456;2024-03-23T12:32:18;99339.67;;;7.83;71.75
85039;BME280;75366;54.588;18.456;2024-03-23T12:37:41;99335.08;;;7.63;72.96
85039;BME280;75366;54.588;18.456;2024-03-23T12:43:04;99334.06;;;7.55;73.92
85039;BME280;75366;54.588;18.456;2024-03-23T12:48:26;99327.60;;;7.49;74.04
85039;BME280;75366;54.588;18.456;2024-03-23T12:53:50;99318.63;;;7.43;74.24
85039;BME280;75366;54.588;18.456;2024-03-23T12:59:14;99310.77;;;7.39;74.34
85039;BME280;75366;54.588;18.456;2024-03-23T13:04:40;99300.92;;;7.36;74.48
85039;BME280;75366;54.588;18.456;2024-03-23T13:09:43;99302.56;;;7.31;74.61
85039;BME280;75366;54.588;18.456;2024-03-23T13:14:47;99296.41;;;7.24;74.60
85039;BME280;75366;54.588;18.456;2024-03-23T13:19:51;99293.95;;;7.20;74.68
85039;BME280;75366;54.588;18.456;2024-03-23T13:24:55;99291.62;;;7.12;74.72
85039;BME280;75366;54.588;18.456;2024-03-23T13:29:58;99294.48;;;7.04;74.91
85039;BME280;75366;54.588;18.456;2024-03-23T13:35:06;99295.96;;;6.91;75.01
85039;BME280;75366;54.588;18.456;2024-03-23T13:40:10;99303.67;;;6.81;75.43
85039;BME280;75366;54.588;18.456;2024-03-23T13:45:13;99307.77;;;6.80;75.55
85039;BME280;75366;54.588;18.456;2024-03-23T13:50:19;99307.84;;;6.78;75.81
85039;BME280;75366;54.588;18.456;2024-03-23T13:55:22;99303.54;;;6.75;75.83
85039;BME280;75366;54.588;18.456;2024-03-23T14:00:26;99304.13;;;6.72;75.79
85039;BME280;75366;54.588;18.456;2024-03-23T14:05:29;99305.19;;;6.72;76.09
85039;BME280;75366;54.588;18.456;2024-03-23T14:10:32;99315.71;;;6.76;76.20
85039;BME280;75366;54.588;18.456;2024-03-23T14:15:35;99317.64;;;6.79;76.02
85039;BME280;75366;54.588;18.456;2024-03-23T14:20:42;99316.90;;;6.84;76.04
85039;BME280;75366;54.588;18.456;2024-03-23T14:25:45;99308.83;;;6.84;76.05
85039;BME280;75366;54.588;18.456;2024-03-23T14:30:49;99309.88;;;6.83;75.77
85039;BME280;75366;54.588;18.456;2024-03-23T14:35:55;99304.59;;;6.75;75.75
85039;BME280;75366;54.588;18.456;2024-03-23T14:41:01;99303.45;;;6.74;75.81
85039;BME280;75366;54.588;18.456;2024-03-23T14:46:10;99302.52;;;6.68;75.71
85039;BME280;75366;54.588;18.456;2024-03-23T14:51:34;99308.45;;;6.60;75.92
85039;BME280;75366;54.588;18.456;2024-03-23T14:56:37;99311.04;;;6.55;75.94
85039;BME280;75366;54.588;18.456;2024-03-23T15:02:00;99318.35;;;6.50;76.12
85039;BME280;75366;54.588;18.456;2024-03-23T15:07:04;99317.28;;;6.47;76.28
85039;BME280;75366;54.588;18.456;2024-03-23T15:12:07;99319.84;;;6.44;76.52
85039;BME280;75366;54.588;18.456;2024-03-23T15:17:10;99323.56;;;6.44;76.77
85039;BME280;75366;54.588;18.456;2024-03-23T15:22:14;99327.84;;;6.42;76.85
85039;BME280;75366;54.588;18.456;2024-03-23T15:27:17;99340.48;;;6.42;76.91
85039;BME280;75366;54.588;18.456;2024-03-23T15:32:20;99350.76;;;6.37;75.47
85039;BME280;75366;54.588;18.456;2024-03-23T15:37:23;99356.35;;;6.37;72.09
85039;BME280;75366;54.588;18.456;2024-03-23T15:42:26;99361.79;;;6.38;70.64
85039;BME280;75366;54.588;18.456;2024-03-23T15:47:29;99364.05;;;6.33;69.70
85039;BME280;75366;54.588;18.456;2024-03-23T15:52:32;99367.12;;;6.27;69.39
85039;BME280;75366;54.588;18.456;2024-03-23T15:57:35;99363.52;;;6.19;70.24
85039;BME280;75366;54.588;18.456;2024-03-23T16:02:38;99371.46;;;6.12;70.77
85039;BME280;75366;54.588;18.456;2024-03-23T16:07:42;99370.48;;;6.09;70.81
85039;BME280;75366;54.588;18.456;2024-03-23T16:12:45;99372.12;;;6.02;70.78
85039;BME280;75366;54.588;18.456;2024-03-23T16:18:08;99373.98;;;5.91;71.16
85039;BME280;75366;54.588;18.456;2024-03-23T16:23:35;99378.31;;;5.80;70.33
85039;BME280;75366;54.588;18.456;2024-03-23T16:28:40;99373.97;;;5.73;69.86
85039;BME280;75366;54.588;18.456;2024-03-23T16:33:44;99368.02;;;5.70;69.80
85039;BME280;75366;54.588;18.456;2024-03-23T16:38:47;99365.05;;;5.70;70.38
85039;BME280;75366;54.588;18.456;2024-03-23T16:43:50;99367.08;;;5.66;70.02
85039;BME280;75366;54.588;18.456;2024-03-23T16:49:13;99373.27;;;5.60;70.43
85039;BME280;75366;54.588;18.456;2024-03-23T16:54:16;99380.84;;;5.54;70.51
85039;BME280;75366;54.588;18.456;2024-03-23T16:59:18;99390.96;;;5.48;70.87
85039;BME280;75366;54.588;18.456;2024-03-23T17:04:21;99393.75;;;5.45;70.96
85039;BME280;75366;54.588;18.456;2024-03-23T17:09:25;99387.54;;;5.41;71.17
85039;BME280;75366;54.588;18.456;2024-03-23T17:14:48;99388.71;;;5.34;71.55
85039;BME280;75366;54.588;18.456;2024-03-23T17:19:50;99397.11;;;5.31;71.92
85039;BME280;75366;54.588;18.456;2024-03-23T17:25:01;99401.05;;;5.27;72.30
85039;BME280;75366;54.588;18.456;2024-03-23T17:30:04;99406.88;;;5.24;72.58
85039;BME280;75366;54.588;18.456;2024-03-23T17:35:07;99404.73;;;5.20;72.63
85039;BME280;75366;54.588;18.456;2024-03-23T17:40:30;99399.11;;;5.14;72.76
85039;BME280;75366;54.588;18.456;2024-03-23T17:45:53;99394.59;;;5.11;72.86
85039;BME280;75366;54.588;18.456;2024-03-23T17:51:03;99386.37;;;5.08;73.10
85039;BME280;75366;54.588;18.456;2024-03-23T17:56:06;99384.54;;;5.05;73.36
85039;BME280;75366;54.588;18.456;2024-03-23T18:01:10;99377.08;;;4.97;73.73
85039;BME280;75366;54.588;18.456;2024-03-23T18:06:15;99361.27;;;4.94;73.70
85039;BME280;75366;54.588;18.456;2024-03-23T18:11:17;99365.45;;;4.87;73.73
85039;BME280;75366;54.588;18.456;2024-03-23T18:16:21;99372.30;;;4.81;74.00
85039;BME280;75366;54.588;18.456;2024-03-23T18:21:23;99362.08;;;4.72;73.70
85039;BME280;75366;54.588;18.456;2024-03-23T18:26:26;99357.95;;;4.64;74.17
85039;BME280;75366;54.588;18.456;2024-03-23T18:31:29;99358.29;;;4.54;74.31
85039;BME280;75366;54.588;18.456;2024-03-23T18:36:32;99370.27;;;4.41;74.33
85039;BME280;75366;54.588;18.456;2024-03-23T18:41:35;99376.48;;;4.28;74.33
85039;BME280;75366;54.588;18.456;2024-03-23T18:46:38;99382.48;;;4.18;74.61
85039;BME280;75366;54.588;18.456;2024-03-23T18:51:41;99386.14;;;4.12;74.67
85039;BME280;75366;54.588;18.456;2024-03-23T18:56:44;99386.02;;;4.06;74.68
85039;BME280;75366;54.588;18.456;2024-03-23T19:01:47;99391.52;;;4.00;75.02
85039;BME280;75366;54.588;18.456;2024-03-23T19:06:50;99396.00;;;3.94;75.21
85039;BME280;75366;54.588;18.456;2024-03-23T19:11:53;99401.12;;;3.89;75.32
85039;BME280;75366;54.588;18.456;2024-03-23T19:16:55;99388.83;;;3.83;75.46
85039;BME280;75366;54.588;18.456;2024-03-23T19:21:59;99381.70;;;3.78;75.62
85039;BME280;75366;54.588;18.456;2024-03-23T19:27:02;99376.25;;;3.73;75.90
85039;BME280;75366;54.588;18.456;2024-03-23T19:32:05;99368.95;;;3.68;76.07
85039;BME280;75366;54.588;18.456;2024-03-23T19:37:08;99371.47;;;3.62;76.22
85039;BME280;75366;54.588;18.456;2024-03-23T19:42:15;99374.75;;;3.56;76.37
85039;BME280;75366;54.588;18.456;2024-03-23T19:47:21;99403.83;;;3.45;76.72
85039;BME280;75366;54.588;18.456;2024-03-23T19:52:23;99413.71;;;3.39;77.10
85039;BME280;75366;54.588;18.456;2024-03-23T19:57:26;99416.27;;;3.35;77.29
85039;BME280;75366;54.588;18.456;2024-03-23T20:02:29;99411.08;;;3.33;77.66
85039;BME280;75366;54.588;18.456;2024-03-23T20:07:32;99422.05;;;3.36;77.80
85039;BME280;75366;54.588;18.456;2024-03-23T20:12:34;99431.00;;;3.36;77.72
85039;BME280;75366;54.588;18.456;2024-03-23T20:17:37;99434.05;;;3.34;77.78
85039;BME280;75366;54.588;18.456;2024-03-23T20:22:40;99437.03;;;3.32;78.07
85039;BME280;75366;54.588;18.456;2024-03-23T20:27:43;99432.94;;;3.34;78.03
85039;BME280;75366;54.588;18.456;2024-03-23T20:32:46;99432.56;;;3.33;78.19
85039;BME280;75366;54.588;18.456;2024-03-23T20:37:51;99430.77;;;3.34;78.18
85039;BME280;75366;54.588;18.456;2024-03-23T20:42:54;99423.02;;;3.32;78.03
85039;BME280;75366;54.588;18.456;2024-03-23T20:48:19;99409.58;;;3.29;78.09
85039;BME280;75366;54.588;18.456;2024-03-23T20:53:22;99402.27;;;3.26;78.12
85039;BME280;75366;54.588;18.456;2024-03-23T20:58:45;99398.64;;;3.21;78.12
85039;BME280;75366;54.588;18.456;2024-03-23T21:04:08;99395.59;;;3.18;78.07
85039;BME280;75366;54.588;18.456;2024-03-23T21:09:32;99396.54;;;3.16;78.06
85039;BME280;75366;54.588;18.456;2024-03-23T21:14:55;99396.95;;;3.14;78.17
85039;BME280;75366;54.588;18.456;2024-03-23T21:20:17;99385.11;;;3.13;78.14
85039;BME280;75366;54.588;18.456;2024-03-23T21:25:40;99381.21;;;3.13;78.35
85039;BME280;75366;54.588;18.456;2024-03-23T21:31:04;99377.13;;;3.11;78.29
85039;BME280;75366;54.588;18.456;2024-03-23T21:36:08;99370.52;;;3.09;78.23
85039;BME280;75366;54.588;18.456;2024-03-23T21:41:10;99363.41;;;3.07;78.37
85039;BME280;75366;54.588;18.456;2024-03-23T21:46:13;99361.64;;;3.04;78.32
85039;BME280;75366;54.588;18.456;2024-03-23T21:51:16;99366.92;;;3.02;78.39
85039;BME280;75366;54.588;18.456;2024-03-23T21:56:20;99362.57;;;2.97;78.48
85039;BME280;75366;54.588;18.456;2024-03-23T22:01:23;99361.95;;;2.94;78.69
85039;BME280;75366;54.588;18.456;2024-03-23T22:06:26;99363.76;;;2.92;78.51
85039;BME280;75366;54.588;18.456;2024-03-23T22:11:30;99368.77;;;2.89;78.64
85039;BME280;75366;54.588;18.456;2024-03-23T22:16:33;99370.09;;;2.87;78.64
85039;BME280;75366;54.588;18.456;2024-03-23T22:21:36;99369.08;;;2.87;78.81
85039;BME280;75366;54.588;18.456;2024-03-23T22:26:38;99368.77;;;2.89;78.84
85039;BME280;75366;54.588;18.456;2024-03-23T22:31:42;99368.36;;;2.89;78.85
85039;BME280;75366;54.588;18.456;2024-03-23T22:36:45;99366.83;;;2.89;79.00
85039;BME280;75366;54.588;18.456;2024-03-23T22:41:48;99371.58;;;2.89;79.11
85039;BME280;75366;54.588;18.456;2024-03-23T22:46:52;99372.46;;;2.90;79.18
85039;BME280;75366;54.588;18.456;2024-03-23T22:51:55;99377.09;;;2.93;79.45
85039;BME280;75366;54.588;18.456;2024-03-23T22:56:58;99375.83;;;2.97;79.55
85039;BME280;75366;54.588;18.456;2024-03-23T23:02:02;99374.63;;;2.98;79.79
85039;BME280;75366;54.588;18.456;2024-03-23T23:07:05;99377.48;;;3.01;79.77
85039;BME280;75366;54.588;18.456;2024-03-23T23:12:08;99372.50;;;3.03;79.91
85039;BME280;75366;54.588;18.456;2024-03-23T23:17:11;99368.13;;;3.07;80.14
85039;BME280;75366;54.588;18.456;2024-03-23T23:22:14;99368.82;;;3.11;80.05
85039;BME280;75366;54.588;18.456;2024-03-23T23:27:17;99365.30;;;3.12;80.11
85039;BME280;75366;54.588;18.456;2024-03-23T23:32:21;99362.10;;;3.11;80.16
85039;BME280;75366;54.588;18.456;2024-03-23T23:37:24;99361.77;;;3.12;80.18
85039;BME280;75366;54.588;18.456;2024-03-23T23:42:27;99367.44;;;3.16;80.27
85039;BME280;75366;54.588;18.456;2024-03-23T23:47:30;99360.80;;;3.17;80.14
85039;BME280;75366;54.588;18.456;2024-03-23T23:52:53;99363.87;;;3.15;80.22
85039;BME280;75366;54.588;18.456;2024-03-23T23:58:16;99365.10;;;3.14;80.28
